Etusivu
METAR-TAF:

METAR-TAF

Lentoasemat :

Wheaton Municipal Airport

Wheaton, Minnesota, Yhdysvallat

Leveyspiiri: 45-42N, Pituuspiiri: 096-30W, korkeus merenpinnasta: 313 m

Tämänhetkinen sää

Tämä raportti tehtiin 28 minuuttia sitten, kello 04.53 UTC
Tuuli 8 kn etelästä/kaakosta
Lämpötila -7°C
Kosteus 86%
Ilmanpaine 1020 hPa
Näkyvyys: 16.1 km

METAR: KETH 290453Z AUTO 15008KT 10SM M07/M09 A3013 RMK AO2

Aika: 23:21 (05:21 UTC)


TAF: puuttuu

Säähavainnot ja -ennusteet yli 4000 lentoasemalta (METAR- ja TAF-raportit).

Käytössä olevat sääasemat on merkitty karttaan keltaisilla ja punaisilla pisteillä.

Aseta hiiri pisteen päälle nähdäksesi sääaseman nimen.

Klikkaa sitten nähdäksesi säähavainnot ja -ennusteet.

Kartan vaihtaminen: klikkaa mustalla rastilla varustettuja vihreitä pisteitä, niin voit zoomata sisään; viivalla varustettua vihreää pistettä, niin voit zoomata ulos tai vihreitä nuolia, niin pääset viereisille kartoille.


METAR-TAF: